sensor_id;sensor_type;location;lat;lon;timestamp;P1;durP1;ratioP1;P2;durP2;ratioP2
48847;SDS011;36611;51.638;5.784;2023-08-07T00:01:45;0.90;;;0.47;;
48847;SDS011;36611;51.638;5.784;2023-08-07T00:04:11;0.73;;;0.45;;
48847;SDS011;36611;51.638;5.784;2023-08-07T00:06:38;1.20;;;0.65;;
48847;SDS011;36611;51.638;5.784;2023-08-07T00:09:04;0.60;;;0.43;;
48847;SDS011;36611;51.638;5.784;2023-08-07T00:11:31;1.10;;;0.50;;
48847;SDS011;36611;51.638;5.784;2023-08-07T00:13:58;2.20;;;0.57;;
48847;SDS011;36611;51.638;5.784;2023-08-07T00:16:25;1.05;;;0.40;;
48847;SDS011;36611;51.638;5.784;2023-08-07T00:18:52;1.70;;;0.88;;
48847;SDS011;36611;51.638;5.784;2023-08-07T00:21:22;0.98;;;0.50;;
48847;SDS011;36611;51.638;5.784;2023-08-07T00:23:49;1.20;;;0.77;;
48847;SDS011;36611;51.638;5.784;2023-08-07T00:26:16;1.08;;;0.57;;
48847;SDS011;36611;51.638;5.784;2023-08-07T00:28:43;1.80;;;0.60;;
48847;SDS011;36611;51.638;5.784;2023-08-07T00:31:10;1.27;;;0.50;;
48847;SDS011;36611;51.638;5.784;2023-08-07T00:33:36;0.65;;;0.35;;
48847;SDS011;36611;51.638;5.784;2023-08-07T00:36:03;1.25;;;0.47;;
48847;SDS011;36611;51.638;5.784;2023-08-07T00:38:30;1.00;;;0.40;;
48847;SDS011;36611;51.638;5.784;2023-08-07T00:40:57;1.73;;;0.77;;
48847;SDS011;36611;51.638;5.784;2023-08-07T00:43:26;1.20;;;0.45;;
48847;SDS011;36611;51.638;5.784;2023-08-07T00:45:52;1.38;;;0.50;;
48847;SDS011;36611;51.638;5.784;2023-08-07T00:48:19;0.77;;;0.43;;
48847;SDS011;36611;51.638;5.784;2023-08-07T00:50:46;1.10;;;0.45;;
48847;SDS011;36611;51.638;5.784;2023-08-07T00:53:14;1.58;;;0.50;;
48847;SDS011;36611;51.638;5.784;2023-08-07T00:55:41;1.10;;;0.43;;
48847;SDS011;36611;51.638;5.784;2023-08-07T00:58:09;0.85;;;0.40;;
48847;SDS011;36611;51.638;5.784;2023-08-07T01:00:36;0.77;;;0.40;;
48847;SDS011;36611;51.638;5.784;2023-08-07T01:03:05;0.88;;;0.60;;
48847;SDS011;36611;51.638;5.784;2023-08-07T01:05:33;1.40;;;0.60;;
48847;SDS011;36611;51.638;5.784;2023-08-07T01:08:01;1.00;;;0.55;;
48847;SDS011;36611;51.638;5.784;2023-08-07T01:13:29;1.20;;;0.50;;
48847;SDS011;36611;51.638;5.784;2023-08-07T01:16:01;0.90;;;0.50;;
48847;SDS011;36611;51.638;5.784;2023-08-07T01:18:34;1.13;;;0.50;;
48847;SDS011;36611;51.638;5.784;2023-08-07T01:21:03;0.80;;;0.50;;
48847;SDS011;36611;51.638;5.784;2023-08-07T01:23:30;1.30;;;0.70;;
48847;SDS011;36611;51.638;5.784;2023-08-07T01:25:56;0.90;;;0.52;;
48847;SDS011;36611;51.638;5.784;2023-08-07T01:28:29;1.35;;;0.68;;
48847;SDS011;36611;51.638;5.784;2023-08-07T01:31:03;0.60;;;0.40;;
48847;SDS011;36611;51.638;5.784;2023-08-07T01:33:40;1.05;;;0.43;;
48847;SDS011;36611;51.638;5.784;2023-08-07T01:36:13;0.98;;;0.50;;
48847;SDS011;36611;51.638;5.784;2023-08-07T01:38:44;0.80;;;0.40;;
48847;SDS011;36611;51.638;5.784;2023-08-07T01:41:12;1.00;;;0.40;;
48847;SDS011;36611;51.638;5.784;2023-08-07T01:43:39;1.25;;;0.50;;
48847;SDS011;36611;51.638;5.784;2023-08-07T01:46:06;1.25;;;0.50;;
48847;SDS011;36611;51.638;5.784;2023-08-07T01:48:33;1.10;;;0.40;;
48847;SDS011;36611;51.638;5.784;2023-08-07T01:50:59;1.30;;;0.47;;
48847;SDS011;36611;51.638;5.784;2023-08-07T01:53:26;0.82;;;0.38;;
48847;SDS011;36611;51.638;5.784;2023-08-07T01:55:53;1.20;;;0.50;;
48847;SDS011;36611;51.638;5.784;2023-08-07T01:58:19;1.65;;;0.93;;
48847;SDS011;36611;51.638;5.784;2023-08-07T02:00:46;0.73;;;0.55;;
48847;SDS011;36611;51.638;5.784;2023-08-07T02:03:13;0.77;;;0.38;;
48847;SDS011;36611;51.638;5.784;2023-08-07T02:05:39;0.75;;;0.40;;
48847;SDS011;36611;51.638;5.784;2023-08-07T02:08:06;0.65;;;0.40;;
48847;SDS011;36611;51.638;5.784;2023-08-07T02:10:33;1.88;;;0.35;;
48847;SDS011;36611;51.638;5.784;2023-08-07T02:12:59;1.02;;;0.52;;
48847;SDS011;36611;51.638;5.784;2023-08-07T02:15:26;0.55;;;0.40;;
48847;SDS011;36611;51.638;5.784;2023-08-07T02:17:52;0.60;;;0.40;;
48847;SDS011;36611;51.638;5.784;2023-08-07T02:20:19;1.10;;;0.40;;
48847;SDS011;36611;51.638;5.784;2023-08-07T02:22:46;0.50;;;0.38;;
48847;SDS011;36611;51.638;5.784;2023-08-07T02:25:13;0.70;;;0.40;;
48847;SDS011;36611;51.638;5.784;2023-08-07T02:27:39;0.55;;;0.32;;
48847;SDS011;36611;51.638;5.784;2023-08-07T02:30:06;0.85;;;0.50;;
48847;SDS011;36611;51.638;5.784;2023-08-07T02:32:33;1.40;;;0.47;;
48847;SDS011;36611;51.638;5.784;2023-08-07T02:35:00;0.88;;;0.50;;
48847;SDS011;36611;51.638;5.784;2023-08-07T02:37:26;0.80;;;0.40;;
48847;SDS011;36611;51.638;5.784;2023-08-07T02:39:53;0.57;;;0.30;;
48847;SDS011;36611;51.638;5.784;2023-08-07T02:42:20;0.77;;;0.40;;
48847;SDS011;36611;51.638;5.784;2023-08-07T02:44:46;0.57;;;0.38;;
48847;SDS011;36611;51.638;5.784;2023-08-07T02:47:13;0.57;;;0.30;;
48847;SDS011;36611;51.638;5.784;2023-08-07T02:49:39;0.82;;;0.30;;
48847;SDS011;36611;51.638;5.784;2023-08-07T02:52:06;0.85;;;0.40;;
48847;SDS011;36611;51.638;5.784;2023-08-07T02:54:36;0.73;;;0.40;;
48847;SDS011;36611;51.638;5.784;2023-08-07T02:57:03;1.52;;;0.50;;
48847;SDS011;36611;51.638;5.784;2023-08-07T02:59:30;0.65;;;0.40;;
48847;SDS011;36611;51.638;5.784;2023-08-07T03:01:56;0.93;;;0.40;;
48847;SDS011;36611;51.638;5.784;2023-08-07T03:04:23;0.85;;;0.50;;
48847;SDS011;36611;51.638;5.784;2023-08-07T03:06:49;0.32;;;0.30;;
48847;SDS011;36611;51.638;5.784;2023-08-07T03:09:16;1.23;;;0.55;;
48847;SDS011;36611;51.638;5.784;2023-08-07T03:11:43;1.55;;;0.60;;
48847;SDS011;36611;51.638;5.784;2023-08-07T03:14:09;1.30;;;0.50;;
48847;SDS011;36611;51.638;5.784;2023-08-07T03:16:36;0.50;;;0.30;;
48847;SDS011;36611;51.638;5.784;2023-08-07T03:19:02;0.70;;;0.30;;
48847;SDS011;36611;51.638;5.784;2023-08-07T03:21:29;0.70;;;0.40;;
48847;SDS011;36611;51.638;5.784;2023-08-07T03:23:56;0.47;;;0.30;;
48847;SDS011;36611;51.638;5.784;2023-08-07T03:26:22;0.90;;;0.50;;
48847;SDS011;36611;51.638;5.784;2023-08-07T03:28:49;0.98;;;0.50;;
48847;SDS011;36611;51.638;5.784;2023-08-07T03:31:17;0.63;;;0.40;;
48847;SDS011;36611;51.638;5.784;2023-08-07T03:33:45;0.50;;;0.20;;
48847;SDS011;36611;51.638;5.784;2023-08-07T03:36:13;0.85;;;0.50;;
48847;SDS011;36611;51.638;5.784;2023-08-07T03:38:40;0.60;;;0.40;;
48847;SDS011;36611;51.638;5.784;2023-08-07T03:41:07;1.02;;;0.40;;
48847;SDS011;36611;51.638;5.784;2023-08-07T03:43:35;0.80;;;0.40;;
48847;SDS011;36611;51.638;5.784;2023-08-07T03:46:02;0.65;;;0.40;;
48847;SDS011;36611;51.638;5.784;2023-08-07T03:48:30;0.88;;;0.40;;
48847;SDS011;36611;51.638;5.784;2023-08-07T03:51:05;1.52;;;0.57;;
48847;SDS011;36611;51.638;5.784;2023-08-07T03:53:38;1.08;;;0.40;;
48847;SDS011;36611;51.638;5.784;2023-08-07T03:56:05;1.15;;;0.43;;
48847;SDS011;36611;51.638;5.784;2023-08-07T03:58:32;0.60;;;0.40;;
48847;SDS011;36611;51.638;5.784;2023-08-07T04:00:59;0.70;;;0.50;;
48847;SDS011;36611;51.638;5.784;2023-08-07T04:03:26;0.93;;;0.63;;
48847;SDS011;36611;51.638;5.784;2023-08-07T04:05:53;0.88;;;0.50;;
48847;SDS011;36611;51.638;5.784;2023-08-07T04:08:21;1.35;;;0.50;;
48847;SDS011;36611;51.638;5.784;2023-08-07T04:11:01;0.60;;;0.40;;
48847;SDS011;36611;51.638;5.784;2023-08-07T04:13:33;1.43;;;0.53;;
48847;SDS011;36611;51.638;5.784;2023-08-07T04:16:00;1.27;;;0.55;;
48847;SDS011;36611;51.638;5.784;2023-08-07T04:18:28;0.88;;;0.32;;
48847;SDS011;36611;51.638;5.784;2023-08-07T04:20:55;0.88;;;0.50;;
48847;SDS011;36611;51.638;5.784;2023-08-07T04:23:23;0.70;;;0.30;;
48847;SDS011;36611;51.638;5.784;2023-08-07T04:25:50;1.25;;;0.50;;
48847;SDS011;36611;51.638;5.784;2023-08-07T04:28:18;0.98;;;0.40;;
48847;SDS011;36611;51.638;5.784;2023-08-07T04:30:47;0.73;;;0.45;;
48847;SDS011;36611;51.638;5.784;2023-08-07T04:33:17;0.82;;;0.40;;
48847;SDS011;36611;51.638;5.784;2023-08-07T04:35:43;0.70;;;0.40;;
48847;SDS011;36611;51.638;5.784;2023-08-07T04:38:10;0.95;;;0.40;;
48847;SDS011;36611;51.638;5.784;2023-08-07T04:40:37;1.15;;;0.40;;
48847;SDS011;36611;51.638;5.784;2023-08-07T04:43:04;0.77;;;0.30;;
48847;SDS011;36611;51.638;5.784;2023-08-07T04:45:30;0.90;;;0.60;;
48847;SDS011;36611;51.638;5.784;2023-08-07T04:47:57;1.05;;;0.50;;
48847;SDS011;36611;51.638;5.784;2023-08-07T04:50:23;0.98;;;0.50;;
48847;SDS011;36611;51.638;5.784;2023-08-07T04:52:50;1.33;;;0.38;;
48847;SDS011;36611;51.638;5.784;2023-08-07T04:55:16;1.05;;;0.57;;
48847;SDS011;36611;51.638;5.784;2023-08-07T04:57:43;1.17;;;0.40;;
48847;SDS011;36611;51.638;5.784;2023-08-07T05:00:09;0.80;;;0.40;;
48847;SDS011;36611;51.638;5.784;2023-08-07T05:02:36;0.82;;;0.35;;
48847;SDS011;36611;51.638;5.784;2023-08-07T05:05:03;1.10;;;0.50;;
48847;SDS011;36611;51.638;5.784;2023-08-07T05:07:32;0.60;;;0.40;;
48847;SDS011;36611;51.638;5.784;2023-08-07T05:10:01;1.35;;;0.40;;
48847;SDS011;36611;51.638;5.784;2023-08-07T05:12:28;1.00;;;0.30;;
48847;SDS011;36611;51.638;5.784;2023-08-07T05:14:55;0.85;;;0.47;;
48847;SDS011;36611;51.638;5.784;2023-08-07T05:17:21;1.77;;;0.50;;
48847;SDS011;36611;51.638;5.784;2023-08-07T05:19:48;0.55;;;0.30;;
48847;SDS011;36611;51.638;5.784;2023-08-07T05:22:15;1.27;;;0.80;;
48847;SDS011;36611;51.638;5.784;2023-08-07T05:24:41;1.02;;;0.40;;
48847;SDS011;36611;51.638;5.784;2023-08-07T05:27:10;0.90;;;0.50;;
48847;SDS011;36611;51.638;5.784;2023-08-07T05:29:37;0.70;;;0.30;;
48847;SDS011;36611;51.638;5.784;2023-08-07T05:32:10;0.85;;;0.40;;
48847;SDS011;36611;51.638;5.784;2023-08-07T05:34:38;1.05;;;0.40;;
48847;SDS011;36611;51.638;5.784;2023-08-07T05:37:05;0.50;;;0.40;;
48847;SDS011;36611;51.638;5.784;2023-08-07T05:39:32;0.93;;;0.40;;
48847;SDS011;36611;51.638;5.784;2023-08-07T05:41:59;1.00;;;0.40;;
48847;SDS011;36611;51.638;5.784;2023-08-07T05:44:26;1.75;;;0.63;;
48847;SDS011;36611;51.638;5.784;2023-08-07T05:46:53;0.85;;;0.50;;
48847;SDS011;36611;51.638;5.784;2023-08-07T05:49:19;0.75;;;0.50;;
48847;SDS011;36611;51.638;5.784;2023-08-07T05:51:50;0.85;;;0.50;;
48847;SDS011;36611;51.638;5.784;2023-08-07T05:54:17;1.13;;;0.50;;
48847;SDS011;36611;51.638;5.784;2023-08-07T05:56:43;0.80;;;0.40;;
48847;SDS011;36611;51.638;5.784;2023-08-07T05:59:10;0.75;;;0.30;;
48847;SDS011;36611;51.638;5.784;2023-08-07T06:01:36;0.63;;;0.40;;
48847;SDS011;36611;51.638;5.784;2023-08-07T06:04:03;0.80;;;0.50;;
48847;SDS011;36611;51.638;5.784;2023-08-07T06:06:30;0.90;;;0.40;;
48847;SDS011;36611;51.638;5.784;2023-08-07T06:09:00;1.27;;;0.50;;
48847;SDS011;36611;51.638;5.784;2023-08-07T06:11:29;1.33;;;0.50;;
48847;SDS011;36611;51.638;5.784;2023-08-07T06:13:55;1.58;;;0.60;;
48847;SDS011;36611;51.638;5.784;2023-08-07T06:16:22;1.08;;;0.40;;
48847;SDS011;36611;51.638;5.784;2023-08-07T06:18:49;0.85;;;0.50;;
48847;SDS011;36611;51.638;5.784;2023-08-07T06:21:15;1.08;;;0.50;;
48847;SDS011;36611;51.638;5.784;2023-08-07T06:23:42;0.98;;;0.38;;
48847;SDS011;36611;51.638;5.784;2023-08-07T06:26:08;0.90;;;0.52;;
48847;SDS011;36611;51.638;5.784;2023-08-07T06:28:35;0.65;;;0.40;;
48847;SDS011;36611;51.638;5.784;2023-08-07T06:31:06;1.05;;;0.45;;
48847;SDS011;36611;51.638;5.784;2023-08-07T06:33:34;1.08;;;0.40;;
48847;SDS011;36611;51.638;5.784;2023-08-07T06:36:02;0.75;;;0.40;;
48847;SDS011;36611;51.638;5.784;2023-08-07T06:38:30;1.08;;;0.40;;
48847;SDS011;36611;51.638;5.784;2023-08-07T06:40:57;1.52;;;0.45;;
48847;SDS011;36611;51.638;5.784;2023-08-07T06:43:24;1.60;;;0.70;;
48847;SDS011;36611;51.638;5.784;2023-08-07T06:45:50;1.10;;;0.38;;
48847;SDS011;36611;51.638;5.784;2023-08-07T06:48:18;1.77;;;0.65;;
48847;SDS011;36611;51.638;5.784;2023-08-07T06:50:48;1.20;;;0.50;;
48847;SDS011;36611;51.638;5.784;2023-08-07T06:53:15;0.70;;;0.30;;
48847;SDS011;36611;51.638;5.784;2023-08-07T06:55:42;0.88;;;0.60;;
48847;SDS011;36611;51.638;5.784;2023-08-07T06:58:09;1.95;;;0.50;;
48847;SDS011;36611;51.638;5.784;2023-08-07T07:00:37;1.67;;;0.57;;
48847;SDS011;36611;51.638;5.784;2023-08-07T07:03:03;1.52;;;0.60;;
48847;SDS011;36611;51.638;5.784;2023-08-07T07:05:31;1.05;;;0.40;;
48847;SDS011;36611;51.638;5.784;2023-08-07T07:07:58;1.25;;;0.60;;
48847;SDS011;36611;51.638;5.784;2023-08-07T07:10:25;0.80;;;0.40;;
48847;SDS011;36611;51.638;5.784;2023-08-07T07:12:52;1.33;;;0.73;;
48847;SDS011;36611;51.638;5.784;2023-08-07T07:15:18;0.82;;;0.40;;
48847;SDS011;36611;51.638;5.784;2023-08-07T07:17:45;0.70;;;0.30;;
48847;SDS011;36611;51.638;5.784;2023-08-07T07:20:12;0.90;;;0.40;;
48847;SDS011;36611;51.638;5.784;2023-08-07T07:22:39;1.35;;;0.50;;
48847;SDS011;36611;51.638;5.784;2023-08-07T07:25:05;1.00;;;0.52;;
48847;SDS011;36611;51.638;5.784;2023-08-07T07:27:32;1.48;;;0.63;;
48847;SDS011;36611;51.638;5.784;2023-08-07T07:29:59;1.52;;;0.50;;
48847;SDS011;36611;51.638;5.784;2023-08-07T07:32:25;1.15;;;0.63;;
48847;SDS011;36611;51.638;5.784;2023-08-07T07:34:52;0.73;;;0.40;;
48847;SDS011;36611;51.638;5.784;2023-08-07T07:37:19;1.02;;;0.40;;
48847;SDS011;36611;51.638;5.784;2023-08-07T07:39:45;1.85;;;0.57;;
48847;SDS011;36611;51.638;5.784;2023-08-07T07:42:12;1.35;;;0.55;;
48847;SDS011;36611;51.638;5.784;2023-08-07T07:44:38;1.90;;;0.50;;
48847;SDS011;36611;51.638;5.784;2023-08-07T07:47:06;1.42;;;0.55;;
48847;SDS011;36611;51.638;5.784;2023-08-07T07:49:36;1.25;;;0.52;;
48847;SDS011;36611;51.638;5.784;2023-08-07T07:52:03;1.08;;;0.40;;
48847;SDS011;36611;51.638;5.784;2023-08-07T07:54:30;0.82;;;0.40;;
48847;SDS011;36611;51.638;5.784;2023-08-07T07:56:56;0.63;;;0.32;;
48847;SDS011;36611;51.638;5.784;2023-08-07T07:59:23;1.15;;;0.52;;
48847;SDS011;36611;51.638;5.784;2023-08-07T08:01:50;0.75;;;0.43;;
48847;SDS011;36611;51.638;5.784;2023-08-07T08:04:17;1.85;;;0.50;;
48847;SDS011;36611;51.638;5.784;2023-08-07T08:06:45;1.75;;;0.63;;
48847;SDS011;36611;51.638;5.784;2023-08-07T08:09:14;1.05;;;0.38;;
48847;SDS011;36611;51.638;5.784;2023-08-07T08:11:41;1.58;;;0.45;;
48847;SDS011;36611;51.638;5.784;2023-08-07T08:14:08;1.58;;;0.70;;
48847;SDS011;36611;51.638;5.784;2023-08-07T08:16:35;0.68;;;0.47;;
48847;SDS011;36611;51.638;5.784;2023-08-07T08:19:01;0.88;;;0.43;;
48847;SDS011;36611;51.638;5.784;2023-08-07T08:21:28;0.85;;;0.50;;
48847;SDS011;36611;51.638;5.784;2023-08-07T08:23:57;1.08;;;0.40;;
48847;SDS011;36611;51.638;5.784;2023-08-07T08:26:23;1.35;;;0.60;;
48847;SDS011;36611;51.638;5.784;2023-08-07T08:28:50;0.90;;;0.52;;
48847;SDS011;36611;51.638;5.784;2023-08-07T08:31:17;1.38;;;0.75;;
48847;SDS011;36611;51.638;5.784;2023-08-07T08:33:43;0.70;;;0.50;;
48847;SDS011;36611;51.638;5.784;2023-08-07T08:36:10;1.90;;;0.60;;
48847;SDS011;36611;51.638;5.784;2023-08-07T08:38:36;1.58;;;0.50;;
48847;SDS011;36611;51.638;5.784;2023-08-07T08:41:03;1.42;;;0.50;;
48847;SDS011;36611;51.638;5.784;2023-08-07T08:43:34;1.02;;;0.47;;
48847;SDS011;36611;51.638;5.784;2023-08-07T08:46:03;0.90;;;0.52;;
48847;SDS011;36611;51.638;5.784;2023-08-07T08:48:33;1.80;;;0.70;;
48847;SDS011;36611;51.638;5.784;2023-08-07T08:51:02;1.00;;;0.60;;
48847;SDS011;36611;51.638;5.784;2023-08-07T08:53:30;0.82;;;0.47;;
48847;SDS011;36611;51.638;5.784;2023-08-07T08:55:59;1.25;;;0.52;;
48847;SDS011;36611;51.638;5.784;2023-08-07T08:58:26;1.08;;;0.60;;
48847;SDS011;36611;51.638;5.784;2023-08-07T09:00:54;2.45;;;0.90;;
48847;SDS011;36611;51.638;5.784;2023-08-07T09:03:21;0.85;;;0.50;;
48847;SDS011;36611;51.638;5.784;2023-08-07T09:05:47;0.88;;;0.63;;
48847;SDS011;36611;51.638;5.784;2023-08-07T09:08:16;2.03;;;0.80;;
48847;SDS011;36611;51.638;5.784;2023-08-07T09:10:43;1.65;;;0.60;;
48847;SDS011;36611;51.638;5.784;2023-08-07T09:13:11;1.15;;;0.70;;
48847;SDS011;36611;51.638;5.784;2023-08-07T09:15:40;1.20;;;0.60;;
48847;SDS011;36611;51.638;5.784;2023-08-07T09:18:14;1.33;;;0.82;;
48847;SDS011;36611;51.638;5.784;2023-08-07T09:20:41;1.35;;;0.50;;
48847;SDS011;36611;51.638;5.784;2023-08-07T09:23:08;1.50;;;0.70;;
48847;SDS011;36611;51.638;5.784;2023-08-07T09:25:35;1.42;;;0.50;;
48847;SDS011;36611;51.638;5.784;2023-08-07T09:28:02;1.80;;;0.60;;
48847;SDS011;36611;51.638;5.784;2023-08-07T09:30:30;1.80;;;0.80;;
48847;SDS011;36611;51.638;5.784;2023-08-07T09:32:58;1.63;;;0.55;;
48847;SDS011;36611;51.638;5.784;2023-08-07T09:35:25;2.13;;;0.60;;
48847;SDS011;36611;51.638;5.784;2023-08-07T09:37:53;2.03;;;0.70;;
48847;SDS011;36611;51.638;5.784;2023-08-07T09:40:19;1.73;;;0.60;;
48847;SDS011;36611;51.638;5.784;2023-08-07T09:42:49;1.33;;;0.80;;
48847;SDS011;36611;51.638;5.784;2023-08-07T09:45:21;1.77;;;0.70;;
48847;SDS011;36611;51.638;5.784;2023-08-07T09:48:01;1.52;;;0.80;;
48847;SDS011;36611;51.638;5.784;2023-08-07T09:50:30;1.67;;;0.52;;
48847;SDS011;36611;51.638;5.784;2023-08-07T09:52:58;2.10;;;0.70;;
48847;SDS011;36611;51.638;5.784;2023-08-07T09:55:25;1.05;;;0.60;;
48847;SDS011;36611;51.638;5.784;2023-08-07T09:57:53;1.63;;;0.80;;
48847;SDS011;36611;51.638;5.784;2023-08-07T10:00:20;2.10;;;0.95;;
48847;SDS011;36611;51.638;5.784;2023-08-07T10:02:48;1.52;;;0.80;;
48847;SDS011;36611;51.638;5.784;2023-08-07T10:05:16;3.45;;;0.90;;
48847;SDS011;36611;51.638;5.784;2023-08-07T10:07:43;1.50;;;0.80;;
48847;SDS011;36611;51.638;5.784;2023-08-07T10:10:10;1.65;;;0.90;;
48847;SDS011;36611;51.638;5.784;2023-08-07T10:12:37;2.97;;;0.70;;
48847;SDS011;36611;51.638;5.784;2023-08-07T10:15:05;1.25;;;0.70;;
48847;SDS011;36611;51.638;5.784;2023-08-07T10:17:33;2.03;;;0.70;;
48847;SDS011;36611;51.638;5.784;2023-08-07T10:20:00;3.00;;;0.90;;
48847;SDS011;36611;51.638;5.784;2023-08-07T10:22:27;1.90;;;0.88;;
48847;SDS011;36611;51.638;5.784;2023-08-07T10:24:57;2.05;;;0.65;;
48847;SDS011;36611;51.638;5.784;2023-08-07T10:27:25;1.77;;;0.90;;
48847;SDS011;36611;51.638;5.784;2023-08-07T10:29:53;1.70;;;0.82;;
48847;SDS011;36611;51.638;5.784;2023-08-07T10:32:24;3.10;;;0.80;;
48847;SDS011;36611;51.638;5.784;2023-08-07T10:34:52;1.77;;;1.00;;
48847;SDS011;36611;51.638;5.784;2023-08-07T10:40:06;1.60;;;0.80;;
48847;SDS011;36611;51.638;5.784;2023-08-07T10:45:43;2.78;;;0.80;;
48847;SDS011;36611;51.638;5.784;2023-08-07T10:48:11;1.45;;;0.85;;
48847;SDS011;36611;51.638;5.784;2023-08-07T10:53:36;3.47;;;1.00;;
48847;SDS011;36611;51.638;5.784;2023-08-07T10:56:06;1.98;;;0.80;;
48847;SDS011;36611;51.638;5.784;2023-08-07T10:58:38;1.67;;;0.70;;
48847;SDS011;36611;51.638;5.784;2023-08-07T11:01:15;1.60;;;0.88;;
48847;SDS011;36611;51.638;5.784;2023-08-07T11:06:16;1.27;;;0.80;;
48847;SDS011;36611;51.638;5.784;2023-08-07T11:08:44;1.27;;;0.70;;
48847;SDS011;36611;51.638;5.784;2023-08-07T11:11:10;1.65;;;0.82;;
48847;SDS011;36611;51.638;5.784;2023-08-07T11:13:37;2.58;;;1.08;;
48847;SDS011;36611;51.638;5.784;2023-08-07T11:16:03;1.52;;;0.90;;
48847;SDS011;36611;51.638;5.784;2023-08-07T11:18:31;1.40;;;0.90;;
48847;SDS011;36611;51.638;5.784;2023-08-07T11:20:58;2.80;;;0.90;;
48847;SDS011;36611;51.638;5.784;2023-08-07T11:23:25;2.05;;;1.17;;
48847;SDS011;36611;51.638;5.784;2023-08-07T11:25:53;1.52;;;0.90;;
48847;SDS011;36611;51.638;5.784;2023-08-07T11:28:20;1.30;;;0.80;;
48847;SDS011;36611;51.638;5.784;2023-08-07T11:30:51;2.08;;;0.75;;
48847;SDS011;36611;51.638;5.784;2023-08-07T11:33:18;1.08;;;0.70;;
48847;SDS011;36611;51.638;5.784;2023-08-07T11:35:46;2.33;;;1.10;;
48847;SDS011;36611;51.638;5.784;2023-08-07T11:38:15;2.35;;;0.90;;
48847;SDS011;36611;51.638;5.784;2023-08-07T11:40:58;2.50;;;1.17;;
48847;SDS011;36611;51.638;5.784;2023-08-07T11:43:28;1.45;;;0.93;;
48847;SDS011;36611;51.638;5.784;2023-08-07T11:46:00;1.52;;;0.75;;
48847;SDS011;36611;51.638;5.784;2023-08-07T11:48:29;2.03;;;0.90;;
48847;SDS011;36611;51.638;5.784;2023-08-07T11:50:57;1.23;;;0.70;;
48847;SDS011;36611;51.638;5.784;2023-08-07T11:53:25;1.63;;;1.00;;
48847;SDS011;36611;51.638;5.784;2023-08-07T11:55:59;1.05;;;0.70;;
48847;SDS011;36611;51.638;5.784;2023-08-07T11:58:34;1.05;;;0.73;;
48847;SDS011;36611;51.638;5.784;2023-08-07T12:01:04;1.23;;;0.77;;
48847;SDS011;36611;51.638;5.784;2023-08-07T12:03:33;1.73;;;0.90;;
48847;SDS011;36611;51.638;5.784;2023-08-07T12:06:06;2.15;;;0.90;;
48847;SDS011;36611;51.638;5.784;2023-08-07T12:08:35;1.83;;;0.80;;
48847;SDS011;36611;51.638;5.784;2023-08-07T12:11:03;1.73;;;0.60;;
48847;SDS011;36611;51.638;5.784;2023-08-07T12:13:38;2.42;;;0.77;;
48847;SDS011;36611;51.638;5.784;2023-08-07T12:16:07;1.40;;;0.77;;
48847;SDS011;36611;51.638;5.784;2023-08-07T12:18:48;2.35;;;1.13;;
48847;SDS011;36611;51.638;5.784;2023-08-07T12:21:20;1.48;;;0.73;;
48847;SDS011;36611;51.638;5.784;2023-08-07T12:23:50;1.23;;;0.90;;
48847;SDS011;36611;51.638;5.784;2023-08-07T12:26:18;3.03;;;1.00;;
48847;SDS011;36611;51.638;5.784;2023-08-07T12:28:44;1.77;;;0.90;;
48847;SDS011;36611;51.638;5.784;2023-08-07T12:31:11;2.03;;;1.08;;
48847;SDS011;36611;51.638;5.784;2023-08-07T12:33:38;1.55;;;0.70;;
48847;SDS011;36611;51.638;5.784;2023-08-07T12:36:04;1.35;;;0.82;;
48847;SDS011;36611;51.638;5.784;2023-08-07T12:38:44;1.90;;;1.15;;
48847;SDS011;36611;51.638;5.784;2023-08-07T12:41:10;1.70;;;0.90;;
48847;SDS011;36611;51.638;5.784;2023-08-07T12:43:57;1.75;;;0.90;;
48847;SDS011;36611;51.638;5.784;2023-08-07T12:46:25;1.58;;;0.80;;
48847;SDS011;36611;51.638;5.784;2023-08-07T12:48:55;1.17;;;0.77;;
48847;SDS011;36611;51.638;5.784;2023-08-07T12:51:21;2.38;;;1.00;;
48847;SDS011;36611;51.638;5.784;2023-08-07T12:53:48;1.60;;;0.80;;
48847;SDS011;36611;51.638;5.784;2023-08-07T12:56:14;1.85;;;0.80;;
48847;SDS011;36611;51.638;5.784;2023-08-07T12:58:41;2.13;;;0.90;;
48847;SDS011;36611;51.638;5.784;2023-08-07T13:01:08;1.50;;;0.93;;
48847;SDS011;36611;51.638;5.784;2023-08-07T13:03:35;1.13;;;0.82;;
48847;SDS011;36611;51.638;5.784;2023-08-07T13:06:02;2.25;;;0.90;;
48847;SDS011;36611;51.638;5.784;2023-08-07T13:08:31;2.17;;;0.95;;
48847;SDS011;36611;51.638;5.784;2023-08-07T13:10:59;1.50;;;0.80;;
48847;SDS011;36611;51.638;5.784;2023-08-07T13:13:26;1.63;;;0.90;;
48847;SDS011;36611;51.638;5.784;2023-08-07T13:15:54;1.60;;;0.90;;
48847;SDS011;36611;51.638;5.784;2023-08-07T13:18:21;1.02;;;0.80;;
48847;SDS011;36611;51.638;5.784;2023-08-07T13:20:48;2.50;;;0.88;;
48847;SDS011;36611;51.638;5.784;2023-08-07T13:23:14;1.50;;;0.80;;
48847;SDS011;36611;51.638;5.784;2023-08-07T13:25:41;2.58;;;0.98;;
48847;SDS011;36611;51.638;5.784;2023-08-07T13:28:07;1.92;;;0.95;;
48847;SDS011;36611;51.638;5.784;2023-08-07T13:30:34;2.15;;;0.90;;
48847;SDS011;36611;51.638;5.784;2023-08-07T13:33:03;1.80;;;0.90;;
48847;SDS011;36611;51.638;5.784;2023-08-07T13:35:30;3.55;;;1.17;;
48847;SDS011;36611;51.638;5.784;2023-08-07T13:37:59;1.58;;;0.98;;
48847;SDS011;36611;51.638;5.784;2023-08-07T13:40:25;2.20;;;0.90;;
48847;SDS011;36611;51.638;5.784;2023-08-07T13:42:52;3.13;;;1.30;;
48847;SDS011;36611;51.638;5.784;2023-08-07T13:45:19;1.33;;;0.80;;
48847;SDS011;36611;51.638;5.784;2023-08-07T13:47:46;1.55;;;0.90;;
48847;SDS011;36611;51.638;5.784;2023-08-07T13:50:12;1.92;;;1.02;;
48847;SDS011;36611;51.638;5.784;2023-08-07T13:52:39;2.00;;;0.82;;
48847;SDS011;36611;51.638;5.784;2023-08-07T13:55:06;2.63;;;0.85;;
48847;SDS011;36611;51.638;5.784;2023-08-07T13:57:35;2.15;;;0.95;;
48847;SDS011;36611;51.638;5.784;2023-08-07T14:00:01;1.92;;;0.80;;
48847;SDS011;36611;51.638;5.784;2023-08-07T14:02:30;3.05;;;1.20;;
48847;SDS011;36611;51.638;5.784;2023-08-07T14:04:58;2.35;;;0.82;;
48847;SDS011;36611;51.638;5.784;2023-08-07T14:07:24;2.72;;;0.88;;
48847;SDS011;36611;51.638;5.784;2023-08-07T14:09:51;1.33;;;0.82;;
48847;SDS011;36611;51.638;5.784;2023-08-07T14:12:17;2.88;;;1.08;;
48847;SDS011;36611;51.638;5.784;2023-08-07T14:14:44;2.20;;;1.10;;
48847;SDS011;36611;51.638;5.784;2023-08-07T14:17:10;2.97;;;1.00;;
48847;SDS011;36611;51.638;5.784;2023-08-07T14:19:37;1.70;;;0.90;;
48847;SDS011;36611;51.638;5.784;2023-08-07T14:22:05;2.08;;;1.20;;
48847;SDS011;36611;51.638;5.784;2023-08-07T14:24:32;2.65;;;1.10;;
48847;SDS011;36611;51.638;5.784;2023-08-07T14:26:58;1.85;;;1.05;;
48847;SDS011;36611;51.638;5.784;2023-08-07T14:29:25;1.52;;;0.93;;
48847;SDS011;36611;51.638;5.784;2023-08-07T14:31:51;1.67;;;0.90;;
48847;SDS011;36611;51.638;5.784;2023-08-07T14:34:18;2.03;;;1.02;;
48847;SDS011;36611;51.638;5.784;2023-08-07T14:36:44;2.15;;;1.10;;
48847;SDS011;36611;51.638;5.784;2023-08-07T14:39:11;1.77;;;1.00;;
48847;SDS011;36611;51.638;5.784;2023-08-07T14:41:37;4.63;;;1.00;;
48847;SDS011;36611;51.638;5.784;2023-08-07T14:44:04;1.58;;;0.77;;
48847;SDS011;36611;51.638;5.784;2023-08-07T14:46:30;1.90;;;0.95;;
48847;SDS011;36611;51.638;5.784;2023-08-07T14:48:57;1.38;;;0.90;;
48847;SDS011;36611;51.638;5.784;2023-08-07T14:51:24;2.17;;;0.77;;
48847;SDS011;36611;51.638;5.784;2023-08-07T14:53:50;1.50;;;0.98;;
48847;SDS011;36611;51.638;5.784;2023-08-07T14:56:17;2.53;;;1.10;;
48847;SDS011;36611;51.638;5.784;2023-08-07T14:58:43;2.35;;;1.10;;
48847;SDS011;36611;51.638;5.784;2023-08-07T15:01:10;2.10;;;0.98;;
48847;SDS011;36611;51.638;5.784;2023-08-07T15:03:37;2.65;;;0.85;;
48847;SDS011;36611;51.638;5.784;2023-08-07T15:06:03;2.75;;;1.08;;